sensor_id;sensor_type;location;lat;lon;timestamp;P1;durP1;ratioP1;P2;durP2;ratioP2
5555;SDS011;2801;50.972;7.856;2023-02-01T00:00:55;32.23;;;12.83;;
5555;SDS011;2801;50.972;7.856;2023-02-01T00:03:22;41.57;;;13.43;;
5555;SDS011;2801;50.972;7.856;2023-02-01T00:05:56;26.13;;;9.27;;
5555;SDS011;2801;50.972;7.856;2023-02-01T00:08:24;29.37;;;13.07;;
5555;SDS011;2801;50.972;7.856;2023-02-01T00:11:00;29.47;;;12.73;;
5555;SDS011;2801;50.972;7.856;2023-02-01T00:13:31;33.80;;;13.63;;
5555;SDS011;2801;50.972;7.856;2023-02-01T00:16:08;28.00;;;11.80;;
5555;SDS011;2801;50.972;7.856;2023-02-01T00:18:40;27.37;;;13.03;;
5555;SDS011;2801;50.972;7.856;2023-02-01T00:21:07;33.63;;;13.63;;
5555;SDS011;2801;50.972;7.856;2023-02-01T00:23:37;28.93;;;12.93;;
5555;SDS011;2801;50.972;7.856;2023-02-01T00:26:05;25.90;;;10.17;;
5555;SDS011;2801;50.972;7.856;2023-02-01T00:28:40;24.67;;;11.90;;
5555;SDS011;2801;50.972;7.856;2023-02-01T00:31:07;25.77;;;12.97;;
5555;SDS011;2801;50.972;7.856;2023-02-01T00:33:34;28.47;;;13.47;;
5555;SDS011;2801;50.972;7.856;2023-02-01T00:36:03;28.57;;;12.07;;
5555;SDS011;2801;50.972;7.856;2023-02-01T00:38:36;28.63;;;12.33;;
5555;SDS011;2801;50.972;7.856;2023-02-01T00:41:14;35.43;;;13.13;;
5555;SDS011;2801;50.972;7.856;2023-02-01T00:43:44;31.40;;;11.87;;
5555;SDS011;2801;50.972;7.856;2023-02-01T00:46:13;28.87;;;12.80;;
5555;SDS011;2801;50.972;7.856;2023-02-01T00:48:41;27.23;;;11.13;;
5555;SDS011;2801;50.972;7.856;2023-02-01T00:51:11;22.33;;;11.07;;
5555;SDS011;2801;50.972;7.856;2023-02-01T00:53:45;27.07;;;12.33;;
5555;SDS011;2801;50.972;7.856;2023-02-01T00:56:12;29.47;;;11.83;;
5555;SDS011;2801;50.972;7.856;2023-02-01T00:58:40;23.23;;;10.77;;
5555;SDS011;2801;50.972;7.856;2023-02-01T01:01:15;22.73;;;11.13;;
5555;SDS011;2801;50.972;7.856;2023-02-01T01:03:49;28.07;;;11.90;;
5555;SDS011;2801;50.972;7.856;2023-02-01T01:06:21;23.70;;;9.53;;
5555;SDS011;2801;50.972;7.856;2023-02-01T01:08:56;29.03;;;9.97;;
5555;SDS011;2801;50.972;7.856;2023-02-01T01:11:27;24.07;;;10.20;;
5555;SDS011;2801;50.972;7.856;2023-02-01T01:13:59;23.67;;;9.60;;
5555;SDS011;2801;50.972;7.856;2023-02-01T01:16:27;24.00;;;9.40;;
5555;SDS011;2801;50.972;7.856;2023-02-01T01:18:57;20.43;;;8.87;;
5555;SDS011;2801;50.972;7.856;2023-02-01T01:21:24;18.67;;;7.83;;
5555;SDS011;2801;50.972;7.856;2023-02-01T01:23:52;19.53;;;7.40;;
5555;SDS011;2801;50.972;7.856;2023-02-01T01:26:20;20.03;;;6.83;;
5555;SDS011;2801;50.972;7.856;2023-02-01T01:28:50;16.77;;;7.03;;
5555;SDS011;2801;50.972;7.856;2023-02-01T01:31:19;23.40;;;8.20;;
5555;SDS011;2801;50.972;7.856;2023-02-01T01:33:47;25.80;;;8.00;;
5555;SDS011;2801;50.972;7.856;2023-02-01T01:36:20;18.47;;;8.10;;
5555;SDS011;2801;50.972;7.856;2023-02-01T01:38:47;21.50;;;8.00;;
5555;SDS011;2801;50.972;7.856;2023-02-01T01:41:16;22.63;;;8.40;;
5555;SDS011;2801;50.972;7.856;2023-02-01T01:43:49;20.37;;;8.13;;
5555;SDS011;2801;50.972;7.856;2023-02-01T01:46:30;23.07;;;8.97;;
5555;SDS011;2801;50.972;7.856;2023-02-01T01:49:40;23.50;;;9.47;;
5555;SDS011;2801;50.972;7.856;2023-02-01T01:52:00;27.17;;;9.43;;
5555;SDS011;2801;50.972;7.856;2023-02-01T01:54:30;28.03;;;8.97;;
5555;SDS011;2801;50.972;7.856;2023-02-01T01:57:04;22.57;;;9.07;;
5555;SDS011;2801;50.972;7.856;2023-02-01T01:59:37;29.70;;;9.83;;
5555;SDS011;2801;50.972;7.856;2023-02-01T02:02:07;21.03;;;10.17;;
5555;SDS011;2801;50.972;7.856;2023-02-01T02:04:34;22.80;;;9.20;;
5555;SDS011;2801;50.972;7.856;2023-02-01T02:07:04;20.17;;;8.83;;
5555;SDS011;2801;50.972;7.856;2023-02-01T02:09:38;24.57;;;9.93;;
5555;SDS011;2801;50.972;7.856;2023-02-01T02:12:13;26.07;;;10.03;;
5555;SDS011;2801;50.972;7.856;2023-02-01T02:14:40;23.20;;;9.60;;
5555;SDS011;2801;50.972;7.856;2023-02-01T02:32:21;17.57;;;6.23;;
5555;SDS011;2801;50.972;7.856;2023-02-01T02:37:55;18.13;;;7.00;;
5555;SDS011;2801;50.972;7.856;2023-02-01T02:40:46;18.77;;;5.90;;
5555;SDS011;2801;50.972;7.856;2023-02-01T02:43:44;15.83;;;5.10;;
5555;SDS011;2801;50.972;7.856;2023-02-01T02:46:44;17.83;;;4.50;;
5555;SDS011;2801;50.972;7.856;2023-02-01T02:49:36;16.40;;;4.67;;
5555;SDS011;2801;50.972;7.856;2023-02-01T02:52:42;20.60;;;4.90;;
5555;SDS011;2801;50.972;7.856;2023-02-01T02:55:38;14.93;;;4.70;;
5555;SDS011;2801;50.972;7.856;2023-02-01T02:58:07;18.73;;;5.20;;
5555;SDS011;2801;50.972;7.856;2023-02-01T03:00:55;18.73;;;5.10;;
5555;SDS011;2801;50.972;7.856;2023-02-01T03:03:42;14.67;;;3.60;;
5555;SDS011;2801;50.972;7.856;2023-02-01T03:06:29;12.80;;;4.20;;
5555;SDS011;2801;50.972;7.856;2023-02-01T03:09:00;11.97;;;3.60;;
5555;SDS011;2801;50.972;7.856;2023-02-01T03:11:34;13.23;;;3.40;;
5555;SDS011;2801;50.972;7.856;2023-02-01T03:14:22;21.90;;;3.30;;
5555;SDS011;2801;50.972;7.856;2023-02-01T03:16:57;13.77;;;3.50;;
5555;SDS011;2801;50.972;7.856;2023-02-01T03:19:34;12.47;;;3.10;;
5555;SDS011;2801;50.972;7.856;2023-02-01T03:22:11;11.50;;;3.57;;
5555;SDS011;2801;50.972;7.856;2023-02-01T03:24:43;13.73;;;3.83;;
5555;SDS011;2801;50.972;7.856;2023-02-01T03:32:54;18.00;;;3.70;;
5555;SDS011;2801;50.972;7.856;2023-02-01T03:35:27;13.40;;;3.30;;
5555;SDS011;2801;50.972;7.856;2023-02-01T03:38:01;15.60;;;3.13;;
5555;SDS011;2801;50.972;7.856;2023-02-01T03:40:42;14.37;;;3.37;;
5555;SDS011;2801;50.972;7.856;2023-02-01T03:43:14;11.63;;;3.60;;
5555;SDS011;2801;50.972;7.856;2023-02-01T03:45:48;16.80;;;3.43;;
5555;SDS011;2801;50.972;7.856;2023-02-01T03:48:23;11.47;;;3.33;;
5555;SDS011;2801;50.972;7.856;2023-02-01T03:50:55;9.00;;;2.30;;
5555;SDS011;2801;50.972;7.856;2023-02-01T03:53:26;19.70;;;4.40;;
5555;SDS011;2801;50.972;7.856;2023-02-01T03:55:54;14.70;;;3.70;;
5555;SDS011;2801;50.972;7.856;2023-02-01T03:58:23;12.00;;;3.47;;
5555;SDS011;2801;50.972;7.856;2023-02-01T04:00:54;11.37;;;3.23;;
5555;SDS011;2801;50.972;7.856;2023-02-01T04:03:24;13.57;;;3.17;;
5555;SDS011;2801;50.972;7.856;2023-02-01T04:05:53;12.40;;;3.57;;
5555;SDS011;2801;50.972;7.856;2023-02-01T04:08:21;13.27;;;3.57;;
5555;SDS011;2801;50.972;7.856;2023-02-01T04:10:49;20.30;;;4.13;;
5555;SDS011;2801;50.972;7.856;2023-02-01T04:13:16;9.40;;;3.47;;
5555;SDS011;2801;50.972;7.856;2023-02-01T04:15:43;12.63;;;3.57;;
5555;SDS011;2801;50.972;7.856;2023-02-01T04:18:11;16.67;;;3.33;;
5555;SDS011;2801;50.972;7.856;2023-02-01T04:20:38;15.53;;;3.73;;
5555;SDS011;2801;50.972;7.856;2023-02-01T04:23:05;9.87;;;3.27;;
5555;SDS011;2801;50.972;7.856;2023-02-01T04:25:32;11.73;;;3.00;;
5555;SDS011;2801;50.972;7.856;2023-02-01T04:27:59;13.90;;;3.93;;
5555;SDS011;2801;50.972;7.856;2023-02-01T04:30:25;13.20;;;3.93;;
5555;SDS011;2801;50.972;7.856;2023-02-01T04:32:52;11.23;;;4.00;;
5555;SDS011;2801;50.972;7.856;2023-02-01T04:35:19;16.80;;;4.50;;
5555;SDS011;2801;50.972;7.856;2023-02-01T04:37:46;16.73;;;3.73;;
5555;SDS011;2801;50.972;7.856;2023-02-01T04:40:12;13.30;;;4.53;;
5555;SDS011;2801;50.972;7.856;2023-02-01T04:42:40;20.80;;;5.27;;
5555;SDS011;2801;50.972;7.856;2023-02-01T04:45:07;16.23;;;4.30;;
5555;SDS011;2801;50.972;7.856;2023-02-01T04:47:35;14.33;;;3.97;;
5555;SDS011;2801;50.972;7.856;2023-02-01T04:50:01;14.53;;;4.13;;
5555;SDS011;2801;50.972;7.856;2023-02-01T04:52:28;12.00;;;4.60;;
5555;SDS011;2801;50.972;7.856;2023-02-01T04:54:55;21.30;;;5.10;;
5555;SDS011;2801;50.972;7.856;2023-02-01T04:57:24;20.53;;;5.63;;
5555;SDS011;2801;50.972;7.856;2023-02-01T04:59:51;14.93;;;4.13;;
5555;SDS011;2801;50.972;7.856;2023-02-01T05:02:18;16.10;;;4.97;;
5555;SDS011;2801;50.972;7.856;2023-02-01T05:04:45;14.50;;;4.47;;
5555;SDS011;2801;50.972;7.856;2023-02-01T05:07:12;18.67;;;5.37;;
5555;SDS011;2801;50.972;7.856;2023-02-01T05:09:39;16.63;;;5.10;;
5555;SDS011;2801;50.972;7.856;2023-02-01T05:12:06;19.73;;;4.97;;
5555;SDS011;2801;50.972;7.856;2023-02-01T05:14:52;12.30;;;4.60;;
5555;SDS011;2801;50.972;7.856;2023-02-01T05:17:19;19.40;;;4.77;;
5555;SDS011;2801;50.972;7.856;2023-02-01T05:19:46;21.73;;;5.00;;
5555;SDS011;2801;50.972;7.856;2023-02-01T05:22:13;14.80;;;4.40;;
5555;SDS011;2801;50.972;7.856;2023-02-01T05:24:40;20.20;;;5.00;;
5555;SDS011;2801;50.972;7.856;2023-02-01T05:27:07;20.77;;;5.17;;
5555;SDS011;2801;50.972;7.856;2023-02-01T05:29:33;17.67;;;5.10;;
5555;SDS011;2801;50.972;7.856;2023-02-01T05:32:00;18.37;;;5.73;;
5555;SDS011;2801;50.972;7.856;2023-02-01T05:34:46;21.63;;;5.23;;
5555;SDS011;2801;50.972;7.856;2023-02-01T05:37:13;15.00;;;4.73;;
5555;SDS011;2801;50.972;7.856;2023-02-01T05:39:40;22.20;;;5.57;;
5555;SDS011;2801;50.972;7.856;2023-02-01T05:42:06;24.33;;;5.27;;
5555;SDS011;2801;50.972;7.856;2023-02-01T05:44:33;17.97;;;5.33;;
5555;SDS011;2801;50.972;7.856;2023-02-01T05:47:00;16.17;;;5.10;;
5555;SDS011;2801;50.972;7.856;2023-02-01T05:49:27;16.57;;;4.40;;
5555;SDS011;2801;50.972;7.856;2023-02-01T05:51:53;17.47;;;5.70;;
5555;SDS011;2801;50.972;7.856;2023-02-01T05:54:20;13.00;;;4.50;;
5555;SDS011;2801;50.972;7.856;2023-02-01T05:56:47;20.97;;;6.40;;
5555;SDS011;2801;50.972;7.856;2023-02-01T05:59:14;15.93;;;5.90;;
5555;SDS011;2801;50.972;7.856;2023-02-01T06:01:40;19.30;;;6.33;;
5555;SDS011;2801;50.972;7.856;2023-02-01T06:04:07;19.77;;;6.13;;
5555;SDS011;2801;50.972;7.856;2023-02-01T06:06:34;17.40;;;6.07;;
5555;SDS011;2801;50.972;7.856;2023-02-01T06:09:03;17.60;;;5.57;;
5555;SDS011;2801;50.972;7.856;2023-02-01T06:11:30;23.23;;;5.23;;
5555;SDS011;2801;50.972;7.856;2023-02-01T06:13:58;19.50;;;6.13;;
5555;SDS011;2801;50.972;7.856;2023-02-01T06:16:26;18.20;;;6.40;;
5555;SDS011;2801;50.972;7.856;2023-02-01T06:18:54;22.43;;;5.97;;
5555;SDS011;2801;50.972;7.856;2023-02-01T06:21:21;11.43;;;4.47;;
5555;SDS011;2801;50.972;7.856;2023-02-01T06:23:51;15.67;;;5.53;;
5555;SDS011;2801;50.972;7.856;2023-02-01T06:26:23;15.87;;;6.13;;
5555;SDS011;2801;50.972;7.856;2023-02-01T06:28:50;13.13;;;5.57;;
5555;SDS011;2801;50.972;7.856;2023-02-01T06:31:18;13.37;;;5.90;;
5555;SDS011;2801;50.972;7.856;2023-02-01T06:33:45;20.93;;;6.53;;
5555;SDS011;2801;50.972;7.856;2023-02-01T06:36:13;17.13;;;6.43;;
5555;SDS011;2801;50.972;7.856;2023-02-01T06:38:41;15.93;;;6.50;;
5555;SDS011;2801;50.972;7.856;2023-02-01T06:41:08;17.47;;;6.70;;
5555;SDS011;2801;50.972;7.856;2023-02-01T06:43:35;19.90;;;7.00;;
5555;SDS011;2801;50.972;7.856;2023-02-01T06:46:04;15.60;;;6.40;;
5555;SDS011;2801;50.972;7.856;2023-02-01T06:48:34;21.10;;;6.63;;
5555;SDS011;2801;50.972;7.856;2023-02-01T06:51:01;19.80;;;7.10;;
5555;SDS011;2801;50.972;7.856;2023-02-01T06:53:27;18.03;;;6.03;;
5555;SDS011;2801;50.972;7.856;2023-02-01T06:55:56;11.17;;;4.50;;
5555;SDS011;2801;50.972;7.856;2023-02-01T06:58:29;19.83;;;6.03;;
5555;SDS011;2801;50.972;7.856;2023-02-01T07:01:04;21.57;;;6.50;;
5555;SDS011;2801;50.972;7.856;2023-02-01T07:03:33;19.87;;;6.00;;
5555;SDS011;2801;50.972;7.856;2023-02-01T07:06:00;17.80;;;6.27;;
5555;SDS011;2801;50.972;7.856;2023-02-01T07:08:27;18.47;;;6.70;;
5555;SDS011;2801;50.972;7.856;2023-02-01T07:10:56;15.53;;;6.10;;
5555;SDS011;2801;50.972;7.856;2023-02-01T07:13:26;16.00;;;6.30;;
5555;SDS011;2801;50.972;7.856;2023-02-01T07:15:53;16.60;;;5.97;;
5555;SDS011;2801;50.972;7.856;2023-02-01T07:18:20;20.03;;;6.17;;
5555;SDS011;2801;50.972;7.856;2023-02-01T07:20:49;16.70;;;6.20;;
5555;SDS011;2801;50.972;7.856;2023-02-01T07:23:17;21.07;;;5.73;;
5555;SDS011;2801;50.972;7.856;2023-02-01T07:25:45;13.63;;;5.53;;
5555;SDS011;2801;50.972;7.856;2023-02-01T07:28:12;15.73;;;6.43;;
5555;SDS011;2801;50.972;7.856;2023-02-01T07:30:39;17.93;;;6.93;;
5555;SDS011;2801;50.972;7.856;2023-02-01T07:33:07;17.17;;;6.37;;
5555;SDS011;2801;50.972;7.856;2023-02-01T07:35:34;18.40;;;7.77;;
5555;SDS011;2801;50.972;7.856;2023-02-01T07:38:00;22.83;;;8.10;;
5555;SDS011;2801;50.972;7.856;2023-02-01T07:40:27;12.27;;;5.03;;
5555;SDS011;2801;50.972;7.856;2023-02-01T07:42:55;18.53;;;6.27;;
5555;SDS011;2801;50.972;7.856;2023-02-01T07:45:22;26.93;;;9.20;;
5555;SDS011;2801;50.972;7.856;2023-02-01T07:47:51;19.47;;;6.30;;
5555;SDS011;2801;50.972;7.856;2023-02-01T07:50:19;25.07;;;8.37;;
5555;SDS011;2801;50.972;7.856;2023-02-01T07:52:46;13.80;;;4.93;;
5555;SDS011;2801;50.972;7.856;2023-02-01T07:55:13;13.60;;;5.53;;
5555;SDS011;2801;50.972;7.856;2023-02-01T07:57:40;16.33;;;6.67;;
5555;SDS011;2801;50.972;7.856;2023-02-01T08:00:08;20.40;;;6.60;;
5555;SDS011;2801;50.972;7.856;2023-02-01T08:02:57;12.93;;;6.37;;
5555;SDS011;2801;50.972;7.856;2023-02-01T08:05:25;22.43;;;6.60;;
5555;SDS011;2801;50.972;7.856;2023-02-01T08:07:52;26.10;;;11.70;;
5555;SDS011;2801;50.972;7.856;2023-02-01T08:10:19;19.50;;;6.63;;
5555;SDS011;2801;50.972;7.856;2023-02-01T08:12:47;17.70;;;6.37;;
5555;SDS011;2801;50.972;7.856;2023-02-01T08:15:14;17.73;;;6.07;;
5555;SDS011;2801;50.972;7.856;2023-02-01T08:17:49;20.07;;;5.83;;
5555;SDS011;2801;50.972;7.856;2023-02-01T08:20:17;18.10;;;7.83;;
5555;SDS011;2801;50.972;7.856;2023-02-01T08:22:45;21.90;;;6.63;;
5555;SDS011;2801;50.972;7.856;2023-02-01T08:25:12;21.87;;;6.67;;
5555;SDS011;2801;50.972;7.856;2023-02-01T08:27:38;24.73;;;7.33;;
5555;SDS011;2801;50.972;7.856;2023-02-01T08:30:06;21.03;;;6.73;;
5555;SDS011;2801;50.972;7.856;2023-02-01T08:32:34;20.77;;;7.20;;
5555;SDS011;2801;50.972;7.856;2023-02-01T08:35:02;17.37;;;7.67;;
5555;SDS011;2801;50.972;7.856;2023-02-01T08:37:30;15.67;;;7.27;;
5555;SDS011;2801;50.972;7.856;2023-02-01T08:39:58;23.00;;;7.87;;
5555;SDS011;2801;50.972;7.856;2023-02-01T08:42:24;22.63;;;7.90;;
5555;SDS011;2801;50.972;7.856;2023-02-01T08:45:10;15.13;;;7.13;;
5555;SDS011;2801;50.972;7.856;2023-02-01T08:47:37;22.57;;;8.30;;
5555;SDS011;2801;50.972;7.856;2023-02-01T08:50:04;19.87;;;7.37;;
5555;SDS011;2801;50.972;7.856;2023-02-01T08:52:32;18.67;;;6.47;;
5555;SDS011;2801;50.972;7.856;2023-02-01T08:54:58;26.90;;;8.53;;
5555;SDS011;2801;50.972;7.856;2023-02-01T08:57:25;22.67;;;8.40;;
5555;SDS011;2801;50.972;7.856;2023-02-01T08:59:52;19.33;;;7.47;;
5555;SDS011;2801;50.972;7.856;2023-02-01T09:02:19;21.23;;;7.83;;
5555;SDS011;2801;50.972;7.856;2023-02-01T09:04:46;21.33;;;8.10;;
5555;SDS011;2801;50.972;7.856;2023-02-01T09:07:12;22.60;;;7.60;;
5555;SDS011;2801;50.972;7.856;2023-02-01T09:09:39;21.70;;;7.60;;
5555;SDS011;2801;50.972;7.856;2023-02-01T09:12:06;16.83;;;5.83;;
5555;SDS011;2801;50.972;7.856;2023-02-01T09:14:33;22.37;;;7.33;;
5555;SDS011;2801;50.972;7.856;2023-02-01T09:17:00;18.07;;;7.33;;
5555;SDS011;2801;50.972;7.856;2023-02-01T09:19:28;16.97;;;7.20;;
5555;SDS011;2801;50.972;7.856;2023-02-01T09:21:55;20.00;;;8.03;;
5555;SDS011;2801;50.972;7.856;2023-02-01T09:24:22;23.47;;;8.03;;
5555;SDS011;2801;50.972;7.856;2023-02-01T09:26:48;17.10;;;7.60;;
5555;SDS011;2801;50.972;7.856;2023-02-01T09:29:16;18.57;;;8.10;;
5555;SDS011;2801;50.972;7.856;2023-02-01T09:31:43;14.87;;;6.37;;
5555;SDS011;2801;50.972;7.856;2023-02-01T09:34:27;17.27;;;7.03;;
5555;SDS011;2801;50.972;7.856;2023-02-01T09:36:55;18.50;;;6.97;;
5555;SDS011;2801;50.972;7.856;2023-02-01T09:39:22;15.40;;;6.63;;
5555;SDS011;2801;50.972;7.856;2023-02-01T09:45:20;22.83;;;7.20;;
5555;SDS011;2801;50.972;7.856;2023-02-01T09:48:17;14.27;;;5.47;;
5555;SDS011;2801;50.972;7.856;2023-02-01T09:50:53;18.23;;;6.83;;
5555;SDS011;2801;50.972;7.856;2023-02-01T09:53:27;18.43;;;7.50;;
5555;SDS011;2801;50.972;7.856;2023-02-01T09:56:07;15.87;;;6.53;;
5555;SDS011;2801;50.972;7.856;2023-02-01T10:02:00;21.30;;;7.30;;
5555;SDS011;2801;50.972;7.856;2023-02-01T10:04:31;18.63;;;6.17;;
5555;SDS011;2801;50.972;7.856;2023-02-01T10:13:01;16.63;;;6.77;;
5555;SDS011;2801;50.972;7.856;2023-02-01T10:18:57;17.87;;;6.10;;
5555;SDS011;2801;50.972;7.856;2023-02-01T10:21:32;15.40;;;6.07;;
5555;SDS011;2801;50.972;7.856;2023-02-01T10:29:50;17.80;;;6.37;;
5555;SDS011;2801;50.972;7.856;2023-02-01T10:32:31;15.47;;;6.83;;
5555;SDS011;2801;50.972;7.856;2023-02-01T10:35:15;23.40;;;6.80;;
5555;SDS011;2801;50.972;7.856;2023-02-01T10:37:47;19.53;;;6.20;;
5555;SDS011;2801;50.972;7.856;2023-02-01T10:40:19;15.33;;;6.10;;
5555;SDS011;2801;50.972;7.856;2023-02-01T10:42:54;12.37;;;6.80;;
5555;SDS011;2801;50.972;7.856;2023-02-01T10:45:30;22.80;;;6.80;;
5555;SDS011;2801;50.972;7.856;2023-02-01T10:48:00;12.70;;;6.53;;
5555;SDS011;2801;50.972;7.856;2023-02-01T10:50:34;19.57;;;7.83;;
5555;SDS011;2801;50.972;7.856;2023-02-01T10:53:10;14.63;;;5.80;;
5555;SDS011;2801;50.972;7.856;2023-02-01T10:55:51;21.47;;;5.90;;
5555;SDS011;2801;50.972;7.856;2023-02-01T10:58:21;17.53;;;6.60;;
5555;SDS011;2801;50.972;7.856;2023-02-01T11:03:38;19.33;;;6.10;;
5555;SDS011;2801;50.972;7.856;2023-02-01T11:06:52;21.73;;;6.77;;
5555;SDS011;2801;50.972;7.856;2023-02-01T11:09:19;13.07;;;6.33;;
5555;SDS011;2801;50.972;7.856;2023-02-01T11:14:22;14.20;;;6.10;;
5555;SDS011;2801;50.972;7.856;2023-02-01T11:17:01;13.40;;;5.80;;
5555;SDS011;2801;50.972;7.856;2023-02-01T11:19:46;14.60;;;6.27;;
5555;SDS011;2801;50.972;7.856;2023-02-01T11:22:29;16.97;;;5.77;;
5555;SDS011;2801;50.972;7.856;2023-02-01T11:24:56;12.47;;;5.43;;
5555;SDS011;2801;50.972;7.856;2023-02-01T11:27:25;14.47;;;5.77;;
5555;SDS011;2801;50.972;7.856;2023-02-01T11:29:55;16.00;;;5.60;;
5555;SDS011;2801;50.972;7.856;2023-02-01T11:32:27;16.77;;;5.07;;
5555;SDS011;2801;50.972;7.856;2023-02-01T11:35:04;16.27;;;5.83;;
5555;SDS011;2801;50.972;7.856;2023-02-01T11:37:33;15.50;;;7.17;;
5555;SDS011;2801;50.972;7.856;2023-02-01T11:40:26;18.07;;;5.47;;
5555;SDS011;2801;50.972;7.856;2023-02-01T11:43:07;15.17;;;4.83;;
5555;SDS011;2801;50.972;7.856;2023-02-01T11:46:00;15.80;;;5.07;;
5555;SDS011;2801;50.972;7.856;2023-02-01T11:48:32;17.60;;;5.63;;
5555;SDS011;2801;50.972;7.856;2023-02-01T11:57:27;10.00;;;4.70;;
5555;SDS011;2801;50.972;7.856;2023-02-01T12:04:49;12.87;;;4.87;;
5555;SDS011;2801;50.972;7.856;2023-02-01T12:16:29;11.43;;;4.13;;
5555;SDS011;2801;50.972;7.856;2023-02-01T12:19:27;12.47;;;4.10;;
5555;SDS011;2801;50.972;7.856;2023-02-01T12:22:41;10.67;;;5.07;;
5555;SDS011;2801;50.972;7.856;2023-02-01T12:31:25;13.27;;;5.67;;
5555;SDS011;2801;50.972;7.856;2023-02-01T12:34:23;14.33;;;5.53;;
5555;SDS011;2801;50.972;7.856;2023-02-01T12:37:21;16.40;;;6.17;;
5555;SDS011;2801;50.972;7.856;2023-02-01T12:46:13;13.47;;;5.37;;
5555;SDS011;2801;50.972;7.856;2023-02-01T12:49:01;12.87;;;5.53;;
5555;SDS011;2801;50.972;7.856;2023-02-01T12:51:41;12.80;;;5.67;;
5555;SDS011;2801;50.972;7.856;2023-02-01T12:54:26;13.73;;;5.30;;
5555;SDS011;2801;50.972;7.856;2023-02-01T12:57:12;13.50;;;5.27;;
5555;SDS011;2801;50.972;7.856;2023-02-01T13:00:02;10.43;;;3.60;;
5555;SDS011;2801;50.972;7.856;2023-02-01T13:02:42;13.40;;;5.13;;
5555;SDS011;2801;50.972;7.856;2023-02-01T13:05:34;14.50;;;4.23;;
5555;SDS011;2801;50.972;7.856;2023-02-01T13:17:02;9.03;;;4.30;;
5555;SDS011;2801;50.972;7.856;2023-02-01T13:19:41;16.33;;;4.57;;
5555;SDS011;2801;50.972;7.856;2023-02-01T13:25:47;11.00;;;4.60;;
5555;SDS011;2801;50.972;7.856;2023-02-01T13:28:16;18.87;;;4.87;;
5555;SDS011;2801;50.972;7.856;2023-02-01T13:43:06;13.47;;;5.27;;
5555;SDS011;2801;50.972;7.856;2023-02-01T13:45:44;18.40;;;5.10;;
5555;SDS011;2801;50.972;7.856;2023-02-01T13:48:20;11.93;;;4.80;;
5555;SDS011;2801;50.972;7.856;2023-02-01T13:51:05;13.10;;;5.77;;
5555;SDS011;2801;50.972;7.856;2023-02-01T13:53:34;16.37;;;5.60;;
5555;SDS011;2801;50.972;7.856;2023-02-01T13:56:06;13.30;;;5.20;;
5555;SDS011;2801;50.972;7.856;2023-02-01T13:58:44;11.80;;;4.63;;
5555;SDS011;2801;50.972;7.856;2023-02-01T14:03:48;12.27;;;4.83;;
5555;SDS011;2801;50.972;7.856;2023-02-01T14:11:44;15.17;;;4.30;;
5555;SDS011;2801;50.972;7.856;2023-02-01T14:16:44;13.50;;;4.47;;
5555;SDS011;2801;50.972;7.856;2023-02-01T14:20:36;11.03;;;4.00;;
5555;SDS011;2801;50.972;7.856;2023-02-01T14:23:11;24.10;;;5.07;;
5555;SDS011;2801;50.972;7.856;2023-02-01T14:25:43;14.47;;;5.13;;
5555;SDS011;2801;50.972;7.856;2023-02-01T14:28:12;15.87;;;4.43;;
5555;SDS011;2801;50.972;7.856;2023-02-01T14:30:56;13.73;;;4.57;;
5555;SDS011;2801;50.972;7.856;2023-02-01T14:33:26;14.07;;;3.90;;
5555;SDS011;2801;50.972;7.856;2023-02-01T14:36:00;12.23;;;4.33;;
5555;SDS011;2801;50.972;7.856;2023-02-01T14:38:35;14.57;;;5.07;;
5555;SDS011;2801;50.972;7.856;2023-02-01T14:41:13;14.60;;;5.07;;
5555;SDS011;2801;50.972;7.856;2023-02-01T14:58:27;8.70;;;3.63;;
5555;SDS011;2801;50.972;7.856;2023-02-01T15:01:26;15.70;;;5.07;;
5555;SDS011;2801;50.972;7.856;2023-02-01T15:04:00;17.70;;;6.37;;
5555;SDS011;2801;50.972;7.856;2023-02-01T15:06:33;22.60;;;5.87;;
5555;SDS011;2801;50.972;7.856;2023-02-01T15:09:16;16.40;;;5.70;;
5555;SDS011;2801;50.972;7.856;2023-02-01T15:12:04;19.67;;;5.33;;
5555;SDS011;2801;50.972;7.856;2023-02-01T15:14:42;16.00;;;5.03;;
5555;SDS011;2801;50.972;7.856;2023-02-01T15:20:19;18.30;;;4.97;;
5555;SDS011;2801;50.972;7.856;2023-02-01T15:22:59;16.87;;;4.73;;
5555;SDS011;2801;50.972;7.856;2023-02-01T15:25:32;14.73;;;5.83;;
5555;SDS011;2801;50.972;7.856;2023-02-01T15:28:03;17.57;;;5.33;;
5555;SDS011;2801;50.972;7.856;2023-02-01T15:30:33;15.30;;;4.80;;
5555;SDS011;2801;50.972;7.856;2023-02-01T15:33:13;15.43;;;5.00;;
5555;SDS011;2801;50.972;7.856;2023-02-01T15:35:49;21.47;;;4.87;;
5555;SDS011;2801;50.972;7.856;2023-02-01T15:38:29;18.10;;;6.00;;
5555;SDS011;2801;50.972;7.856;2023-02-01T15:46:31;12.10;;;4.57;;
5555;SDS011;2801;50.972;7.856;2023-02-01T15:49:51;16.20;;;5.60;;
5555;SDS011;2801;50.972;7.856;2023-02-01T15:52:20;16.00;;;5.30;;
5555;SDS011;2801;50.972;7.856;2023-02-01T15:54:52;16.83;;;7.30;;
5555;SDS011;2801;50.972;7.856;2023-02-01T15:57:27;18.07;;;6.87;;
5555;SDS011;2801;50.972;7.856;2023-02-01T16:00:04;22.80;;;8.10;;
5555;SDS011;2801;50.972;7.856;2023-02-01T16:02:57;22.13;;;5.77;;
5555;SDS011;2801;50.972;7.856;2023-02-01T16:05:40;15.03;;;4.47;;
5555;SDS011;2801;50.972;7.856;2023-02-01T16:08:14;17.67;;;5.00;;
5555;SDS011;2801;50.972;7.856;2023-02-01T16:10:53;18.93;;;5.10;;
5555;SDS011;2801;50.972;7.856;2023-02-01T16:13:28;14.00;;;5.03;;
5555;SDS011;2801;50.972;7.856;2023-02-01T16:15:56;18.10;;;5.43;;
5555;SDS011;2801;50.972;7.856;2023-02-01T16:18:25;13.47;;;4.30;;
5555;SDS011;2801;50.972;7.856;2023-02-01T16:20:52;15.07;;;5.10;;
5555;SDS011;2801;50.972;7.856;2023-02-01T16:23:19;15.47;;;4.70;;
5555;SDS011;2801;50.972;7.856;2023-02-01T16:25:46;21.47;;;6.23;;
5555;SDS011;2801;50.972;7.856;2023-02-01T16:28:13;17.93;;;6.10;;
5555;SDS011;2801;50.972;7.856;2023-02-01T16:30:40;16.93;;;5.60;;
5555;SDS011;2801;50.972;7.856;2023-02-01T16:33:09;26.47;;;6.57;;
5555;SDS011;2801;50.972;7.856;2023-02-01T16:35:45;16.93;;;4.60;;
5555;SDS011;2801;50.972;7.856;2023-02-01T16:38:14;13.60;;;4.83;;
5555;SDS011;2801;50.972;7.856;2023-02-01T16:40:45;16.17;;;4.90;;
5555;SDS011;2801;50.972;7.856;2023-02-01T16:43:17;18.27;;;4.47;;
5555;SDS011;2801;50.972;7.856;2023-02-01T16:45:49;17.70;;;4.40;;
5555;SDS011;2801;50.972;7.856;2023-02-01T16:50:55;19.43;;;5.47;;
5555;SDS011;2801;50.972;7.856;2023-02-01T16:53:28;15.83;;;4.83;;
5555;SDS011;2801;50.972;7.856;2023-02-01T16:56:17;10.97;;;3.43;;
5555;SDS011;2801;50.972;7.856;2023-02-01T16:58:56;17.17;;;4.77;;
5555;SDS011;2801;50.972;7.856;2023-02-01T17:01:24;13.90;;;4.20;;
5555;SDS011;2801;50.972;7.856;2023-02-01T17:03:52;12.93;;;3.67;;
5555;SDS011;2801;50.972;7.856;2023-02-01T17:06:20;16.93;;;5.07;;
5555;SDS011;2801;50.972;7.856;2023-02-01T17:08:51;22.87;;;4.83;;
5555;SDS011;2801;50.972;7.856;2023-02-01T17:11:24;19.03;;;5.50;;
5555;SDS011;2801;50.972;7.856;2023-02-01T17:13:53;20.47;;;5.93;;
5555;SDS011;2801;50.972;7.856;2023-02-01T17:18:56;16.63;;;5.70;;
5555;SDS011;2801;50.972;7.856;2023-02-01T17:21:29;17.03;;;5.73;;
5555;SDS011;2801;50.972;7.856;2023-02-01T17:24:04;19.90;;;5.60;;
5555;SDS011;2801;50.972;7.856;2023-02-01T17:26:31;18.60;;;5.37;;
5555;SDS011;2801;50.972;7.856;2023-02-01T17:28:58;13.60;;;4.87;;
5555;SDS011;2801;50.972;7.856;2023-02-01T17:31:25;15.30;;;5.60;;
5555;SDS011;2801;50.972;7.856;2023-02-01T17:33:54;23.00;;;6.23;;
5555;SDS011;2801;50.972;7.856;2023-02-01T17:36:21;22.53;;;6.03;;
5555;SDS011;2801;50.972;7.856;2023-02-01T17:38:48;19.87;;;6.27;;
5555;SDS011;2801;50.972;7.856;2023-02-01T17:41:30;17.30;;;6.27;;
5555;SDS011;2801;50.972;7.856;2023-02-01T17:43:57;20.07;;;6.77;;
5555;SDS011;2801;50.972;7.856;2023-02-01T17:46:24;17.97;;;6.90;;
5555;SDS011;2801;50.972;7.856;2023-02-01T17:48:54;19.20;;;7.20;;
5555;SDS011;2801;50.972;7.856;2023-02-01T17:51:24;12.47;;;5.70;;
5555;SDS011;2801;50.972;7.856;2023-02-01T17:53:53;20.90;;;7.00;;
5555;SDS011;2801;50.972;7.856;2023-02-01T17:56:22;18.67;;;6.63;;
5555;SDS011;2801;50.972;7.856;2023-02-01T17:58:50;15.17;;;6.20;;
5555;SDS011;2801;50.972;7.856;2023-02-01T18:01:18;15.17;;;6.73;;